Time;durP1;ratioP1;P1;durP2;ratioP2;P2;SDS_P1;SDS_P2;PMS_P1;PMS_P2;Temp;Humidity;BMP_temperature;BMP_pressure;BME280_temperature;BME280_humidity;BME280_pressure;Samples;Min_cycle;Max_cycle;Signal;HPM_P1;HPM_P2
2023/01/18 00:01:09;;;;;;;10.80;5.80;;;26.70;40.70;;;;;;5059552;28;20287;-79
2023/01/18 00:03:41;;;;;;;8.27;5.03;;;26.80;40.80;;;;;;5062798;28;20640;-80
2023/01/18 00:06:10;;;;;;;9.87;6.30;;;26.70;41.40;;;;;;5068063;28;20234;-79
2023/01/18 00:08:41;;;;;;;9.43;5.63;;;26.70;40.70;;;;;;5066206;28;20239;-79
2023/01/18 00:11:09;;;;;;;15.00;7.17;;;26.70;40.70;;;;;;5064539;28;20760;-79
2023/01/18 00:13:37;;;;;;;8.80;5.37;;;26.70;40.70;;;;;;5065030;28;20207;-78
2023/01/18 00:16:05;;;;;;;12.40;6.47;;;26.70;40.60;;;;;;5065730;28;20191;-84
2023/01/18 00:18:35;;;;;;;10.67;6.37;;;26.70;40.70;;;;;;5067729;28;20214;-83
2023/01/18 00:21:02;;;;;;;12.13;6.47;;;26.70;40.70;;;;;;5067812;28;20222;-81
2023/01/18 00:23:30;;;;;;;11.93;6.23;;;26.70;40.70;;;;;;5062060;28;20199;-82
2023/01/18 00:26:00;;;;;;;11.20;6.13;;;26.70;40.60;;;;;;5065944;28;20290;-85
2023/01/18 00:28:27;;;;;;;14.13;7.10;;;26.70;40.50;;;;;;5062877;28;20215;-83
2023/01/18 00:30:54;;;;;;;10.87;5.70;;;26.70;40.60;;;;;;5067418;28;20575;-83
2023/01/18 00:33:21;;;;;;;12.47;6.27;;;26.70;40.60;;;;;;5059254;28;20199;-82
2023/01/18 00:35:56;;;;;;;10.57;5.60;;;26.70;40.60;;;;;;5065225;28;20219;-82
2023/01/18 00:38:24;;;;;;;16.70;8.13;;;26.70;40.30;;;;;;5061847;28;20214;-82
2023/01/18 00:40:51;;;;;;;14.67;7.47;;;26.70;40.40;;;;;;5064858;28;20221;-84
2023/01/18 00:46:02;;;;;;;9.63;5.70;;;26.70;40.50;;;;;;5065030;28;20210;-82
2023/01/18 00:48:29;;;;;;;8.53;4.77;;;26.70;40.50;;;;;;5066751;28;20306;-82
2023/01/18 00:50:57;;;;;;;13.17;6.70;;;26.70;40.40;;;;;;5065566;28;20687;-85
2023/01/18 00:53:24;;;;;;;8.10;5.40;;;26.70;40.40;;;;;;5064532;28;20286;-83
2023/01/18 00:55:51;;;;;;;8.90;5.23;;;26.70;40.40;;;;;;5062344;28;20202;-85
2023/01/18 00:58:18;;;;;;;16.40;7.80;;;26.70;40.40;;;;;;5063099;28;20286;-86
2023/01/18 01:00:45;;;;;;;7.63;5.10;;;26.70;40.40;;;;;;5059012;28;20204;-81
2023/01/18 01:03:13;;;;;;;12.20;6.47;;;26.70;40.40;;;;;;5066847;28;20191;-84
2023/01/18 01:08:29;;;;;;;17.73;8.33;;;26.70;40.30;;;;;;5063127;28;20215;-81
2023/01/18 01:11:05;;;;;;;8.40;5.23;;;26.70;40.20;;;;;;5064394;28;20223;-81
2023/01/18 01:27:17;;;;;;;9.30;5.17;;;26.70;40.20;;;;;;5064774;28;20297;-82
2023/01/18 01:29:44;;;;;;;8.30;5.23;;;26.70;40.10;;;;;;5048053;28;20558;-81
2023/01/18 01:32:11;;;;;;;7.70;4.83;;;26.70;40.10;;;;;;5063156;28;20223;-80
2023/01/18 01:34:38;;;;;;;11.83;6.37;;;26.70;40.10;;;;;;5065075;28;20206;-81
2023/01/18 01:37:05;;;;;;;18.07;8.03;;;26.70;40.20;;;;;;5065842;28;20246;-83
2023/01/18 01:39:33;;;;;;;8.87;5.40;;;26.70;40.10;;;;;;5070832;28;20204;-81
2023/01/18 01:42:00;;;;;;;6.87;4.90;;;26.70;40.10;;;;;;5067061;28;20482;-82
2023/01/18 01:44:50;;;;;;;9.03;5.23;;;26.70;40.10;;;;;;5070608;28;20303;-81
2023/01/18 01:47:32;;;;;;;9.07;5.30;;;26.70;39.90;;;;;;5070110;28;20206;-81
2023/01/18 01:50:03;;;;;;;9.50;5.40;;;26.80;40.10;;;;;;5064407;28;20582;-81
2023/01/18 01:52:34;;;;;;;13.33;6.63;;;26.70;40.10;;;;;;5062134;28;20758;-81
2023/01/18 01:55:07;;;;;;;10.77;5.57;;;26.70;40.10;;;;;;5068187;28;20548;-82
2023/01/18 01:57:38;;;;;;;16.83;7.53;;;26.70;40.10;;;;;;5059859;28;20221;-80
2023/01/18 02:00:09;;;;;;;11.30;5.97;;;26.70;40.10;;;;;;5066557;28;20196;-82
2023/01/18 02:02:37;;;;;;;9.20;5.60;;;26.80;40.10;;;;;;5068522;28;20230;-81
2023/01/18 02:05:07;;;;;;;7.47;4.77;;;26.80;40.10;;;;;;5063983;28;20283;-82
2023/01/18 02:07:34;;;;;;;7.33;4.77;;;26.80;40.10;;;;;;5064625;28;20202;-81
2023/01/18 02:10:04;;;;;;;8.33;4.93;;;26.70;40.10;;;;;;5064630;28;20707;-82
2023/01/18 02:12:33;;;;;;;7.87;4.97;;;26.70;39.90;;;;;;5069748;28;20279;-81
2023/01/18 02:15:00;;;;;;;8.47;4.73;;;26.70;39.90;;;;;;5069996;28;20209;-81
2023/01/18 02:17:41;;;;;;;8.33;4.57;;;26.70;40.00;;;;;;5068289;28;20206;-81
2023/01/18 02:20:29;;;;;;;9.83;5.17;;;26.70;39.80;;;;;;5063690;28;20204;-81
2023/01/18 02:23:35;;;;;;;9.17;4.83;;;26.70;39.70;;;;;;5059023;28;20192;-81
2023/01/18 02:26:44;;;;;;;8.07;4.77;;;26.70;39.70;;;;;;5063547;28;20201;-81
2023/01/18 02:29:16;;;;;;;7.90;4.70;;;26.70;39.40;;;;;;5069237;28;20988;-81
2023/01/18 02:31:56;;;;;;;11.10;5.73;;;26.80;39.80;;;;;;5067292;28;20200;-84
2023/01/18 02:34:33;;;;;;;12.47;5.97;;;26.80;39.90;;;;;;5068078;28;20550;-81
2023/01/18 02:37:06;;;;;;;10.07;5.50;;;26.80;39.90;;;;;;5067290;28;20306;-81
2023/01/18 02:39:41;;;;;;;12.50;6.17;;;26.80;39.90;;;;;;5068099;28;20206;-81
2023/01/18 02:47:49;;;;;;;7.17;4.30;;;26.80;39.80;;;;;;5068871;28;20573;-82
2023/01/18 02:50:23;;;;;;;8.00;4.60;;;26.80;39.80;;;;;;5067776;28;20235;-81
2023/01/18 02:52:50;;;;;;;14.13;6.90;;;26.80;39.60;;;;;;5067289;28;20697;-82
2023/01/18 02:55:31;;;;;;;6.67;4.33;;;26.80;39.90;;;;;;5068938;28;20208;-81
2023/01/18 02:58:04;;;;;;;12.97;5.87;;;26.80;39.60;;;;;;5066500;28;20718;-82
2023/01/18 03:00:37;;;;;;;15.33;6.63;;;26.80;39.50;;;;;;5064780;28;20290;-83
2023/01/18 03:03:06;;;;;;;7.77;4.50;;;26.80;39.50;;;;;;5062343;28;20202;-82
2023/01/18 03:05:34;;;;;;;8.40;4.60;;;26.80;39.60;;;;;;5066332;28;20206;-81
2023/01/18 03:08:08;;;;;;;11.93;5.77;;;26.80;39.60;;;;;;5068577;28;20200;-81
2023/01/18 03:10:43;;;;;;;9.67;4.73;;;26.80;39.50;;;;;;5068231;28;20309;-81
2023/01/18 03:13:17;;;;;;;10.53;4.60;;;26.80;39.40;;;;;;5062585;28;20230;-81
2023/01/18 03:15:51;;;;;;;7.67;4.37;;;26.80;39.40;;;;;;5066337;28;20646;-81
2023/01/18 03:18:22;;;;;;;7.70;4.37;;;26.80;39.40;;;;;;5057362;28;20232;-81
2023/01/18 03:20:54;;;;;;;6.17;3.77;;;26.80;39.40;;;;;;5061035;28;20226;-80
2023/01/18 03:23:38;;;;;;;6.33;4.07;;;26.80;39.40;;;;;;5067672;28;20203;-81
2023/01/18 03:26:08;;;;;;;18.20;7.73;;;26.80;39.40;;;;;;5064246;28;20191;-81
2023/01/18 03:34:22;;;;;;;11.23;5.37;;;26.80;39.30;;;;;;5051247;28;20269;-81
2023/01/18 03:36:52;;;;;;;5.33;3.33;;;26.80;39.20;;;;;;5067601;28;20222;-80
2023/01/18 03:39:27;;;;;;;8.00;4.53;;;26.80;39.40;;;;;;5067126;28;20208;-81
2023/01/18 03:41:58;;;;;;;9.67;4.83;;;26.80;39.40;;;;;;5067591;28;20196;-81
2023/01/18 03:44:29;;;;;;;6.17;3.93;;;26.80;39.30;;;;;;5066221;28;20195;-79
2023/01/18 03:46:57;;;;;;;13.63;6.07;;;26.80;39.40;;;;;;5067380;28;20318;-80
2023/01/18 03:49:26;;;;;;;7.60;4.40;;;26.90;39.50;;;;;;5068071;28;20284;-81
2023/01/18 03:52:06;;;;;;;7.50;4.17;;;26.80;39.30;;;;;;5064809;28;20279;-80
2023/01/18 03:54:38;;;;;;;7.63;4.00;;;26.90;39.00;;;;;;5065904;28;20206;-82
2023/01/18 03:57:09;;;;;;;9.23;4.63;;;26.80;39.20;;;;;;5060847;28;20283;-80
2023/01/18 03:59:39;;;;;;;10.37;5.00;;;26.80;39.20;;;;;;5065303;28;20214;-80
2023/01/18 04:02:08;;;;;;;10.13;5.07;;;26.80;39.10;;;;;;5065106;28;20192;-80
2023/01/18 04:04:35;;;;;;;9.20;4.53;;;26.90;39.20;;;;;;5067783;28;20199;-81
2023/01/18 04:07:02;;;;;;;8.53;4.40;;;26.80;39.20;;;;;;5066628;28;20191;-81
2023/01/18 04:09:29;;;;;;;6.70;3.63;;;26.80;39.20;;;;;;5065652;28;20753;-81
2023/01/18 04:11:56;;;;;;;5.63;3.43;;;26.90;39.10;;;;;;5067250;28;20235;-80
2023/01/18 04:14:23;;;;;;;14.23;6.20;;;26.80;39.10;;;;;;5067169;28;20238;-80
2023/01/18 04:16:50;;;;;;;5.83;3.70;;;26.80;39.10;;;;;;5066974;28;20298;-80
2023/01/18 04:19:18;;;;;;;7.63;4.30;;;26.80;39.00;;;;;;5067015;28;20275;-80
2023/01/18 04:21:45;;;;;;;6.27;3.53;;;26.80;38.90;;;;;;5066217;28;20249;-80
2023/01/18 04:24:12;;;;;;;6.20;3.57;;;26.80;38.90;;;;;;5068517;28;20203;-80
2023/01/18 04:26:39;;;;;;;8.40;4.03;;;26.80;38.90;;;;;;5064039;28;20739;-81
2023/01/18 04:29:07;;;;;;;5.93;3.47;;;26.90;39.00;;;;;;5067219;28;20302;-81
2023/01/18 04:31:34;;;;;;;10.37;4.63;;;26.80;38.90;;;;;;5064136;28;20203;-83
2023/01/18 04:34:01;;;;;;;5.67;3.33;;;26.80;38.90;;;;;;5066531;28;20203;-86
2023/01/18 04:36:30;;;;;;;5.50;3.33;;;26.80;38.80;;;;;;5065811;28;20724;-83
2023/01/18 04:38:58;;;;;;;6.53;3.63;;;26.90;38.80;;;;;;5063849;28;20199;-81
2023/01/18 04:41:25;;;;;;;14.50;6.30;;;26.80;38.90;;;;;;5063172;28;20203;-81
2023/01/18 04:43:52;;;;;;;12.77;5.70;;;26.80;38.70;;;;;;5059507;28;20286;-87
2023/01/18 04:46:19;;;;;;;10.53;4.93;;;26.80;38.70;;;;;;5057462;28;20695;-80
2023/01/18 04:48:50;;;;;;;14.40;5.77;;;26.80;38.80;;;;;;5059942;28;20618;-80
2023/01/18 04:51:18;;;;;;;10.17;4.83;;;26.80;38.50;;;;;;5060094;28;20223;-80
2023/01/18 04:53:46;;;;;;;10.43;4.63;;;26.80;38.70;;;;;;5053425;28;20286;-81
2023/01/18 04:56:14;;;;;;;5.70;3.03;;;26.80;38.70;;;;;;5066017;28;20214;-80
2023/01/18 04:58:41;;;;;;;11.00;4.90;;;26.80;38.70;;;;;;5060505;28;20622;-80
2023/01/18 05:01:11;;;;;;;6.63;3.50;;;26.80;38.60;;;;;;5055063;28;20202;-82
2023/01/18 05:03:38;;;;;;;8.80;4.27;;;26.80;38.50;;;;;;5059448;28;20214;-80
2023/01/18 05:06:07;;;;;;;12.03;5.53;;;26.80;38.60;;;;;;5066948;28;20187;-81
2023/01/18 05:08:34;;;;;;;11.17;5.17;;;26.80;39.20;;;;;;5060229;28;20202;-81
2023/01/18 05:11:03;;;;;;;5.63;3.10;;;26.80;38.60;;;;;;5067713;28;20227;-80
2023/01/18 05:13:31;;;;;;;13.87;5.73;;;26.80;38.50;;;;;;5063851;28;20200;-81
2023/01/18 05:15:59;;;;;;;6.67;3.33;;;26.80;38.60;;;;;;5071129;28;20213;-80
2023/01/18 05:18:26;;;;;;;9.67;4.50;;;26.80;38.50;;;;;;5064588;28;22375;-80
2023/01/18 05:20:53;;;;;;;6.03;3.40;;;26.80;38.60;;;;;;5064049;28;20915;-80
2023/01/18 05:23:20;;;;;;;7.80;3.73;;;26.80;38.60;;;;;;5072082;28;20198;-83
2023/01/18 05:25:52;;;;;;;5.60;3.27;;;26.80;38.50;;;;;;5070981;28;20202;-81
2023/01/18 05:28:21;;;;;;;9.27;4.10;;;26.80;38.40;;;;;;5068756;28;20192;-80
2023/01/18 05:30:48;;;;;;;12.13;5.00;;;26.80;38.40;;;;;;5069917;28;20241;-80
2023/01/18 05:33:15;;;;;;;6.20;3.50;;;26.80;38.40;;;;;;5071094;28;20319;-80
2023/01/18 05:35:49;;;;;;;5.93;3.47;;;26.80;38.40;;;;;;5069342;28;20229;-82
2023/01/18 05:38:16;;;;;;;8.73;4.23;;;26.80;39.10;;;;;;5069286;28;20288;-80
2023/01/18 05:40:44;;;;;;;5.83;3.53;;;26.80;38.40;;;;;;5067416;28;20199;-81
2023/01/18 05:43:12;;;;;;;7.23;3.53;;;26.80;38.30;;;;;;5069248;28;20207;-82
2023/01/18 05:45:42;;;;;;;7.07;3.53;;;26.70;38.30;;;;;;5069665;28;20211;-81
2023/01/18 05:48:09;;;;;;;7.63;3.80;;;26.70;38.10;;;;;;5069230;28;20191;-80
2023/01/18 05:50:39;;;;;;;6.00;3.27;;;26.80;38.20;;;;;;5070876;28;20230;-80
2023/01/18 05:53:06;;;;;;;11.37;4.83;;;26.80;38.20;;;;;;5061830;28;20230;-81
2023/01/18 05:55:33;;;;;;;14.50;5.90;;;26.80;38.20;;;;;;5068764;28;20290;-80
2023/01/18 05:58:00;;;;;;;6.63;2.97;;;26.70;38.20;;;;;;5066049;28;20211;-80
2023/01/18 06:00:28;;;;;;;13.40;5.37;;;26.80;38.20;;;;;;5066464;28;20212;-79
2023/01/18 06:02:56;;;;;;;6.00;3.27;;;26.80;38.30;;;;;;5066320;28;20199;-80
2023/01/18 06:05:24;;;;;;;5.93;3.37;;;26.80;38.20;;;;;;5071306;28;20188;-81
2023/01/18 06:07:51;;;;;;;12.37;5.13;;;26.80;38.10;;;;;;5068393;28;20238;-80
2023/01/18 06:10:19;;;;;;;10.03;4.37;;;26.80;38.20;;;;;;5068770;28;20323;-79
2023/01/18 06:12:46;;;;;;;7.17;3.77;;;26.80;38.20;;;;;;5065091;28;20196;-80
2023/01/18 06:15:14;;;;;;;5.33;3.10;;;26.70;38.10;;;;;;5070471;28;20206;-81
2023/01/18 06:17:41;;;;;;;10.30;4.53;;;26.80;38.90;;;;;;5068649;28;20222;-82
2023/01/18 06:20:12;;;;;;;7.47;3.73;;;26.80;38.20;;;;;;5068336;28;20215;-81
2023/01/18 06:22:40;;;;;;;9.47;4.23;;;26.80;38.10;;;;;;5066996;28;20223;-80
2023/01/18 06:25:08;;;;;;;5.77;3.03;;;26.80;38.20;;;;;;5067130;28;20199;-80
2023/01/18 06:27:36;;;;;;;8.97;4.07;;;26.80;38.10;;;;;;5067388;28;20555;-81
2023/01/18 06:30:05;;;;;;;7.10;3.67;;;26.80;38.20;;;;;;5069733;28;20211;-80
2023/01/18 06:32:32;;;;;;;7.00;3.77;;;26.80;38.20;;;;;;5066792;28;20661;-80
2023/01/18 06:34:59;;;;;;;6.50;3.37;;;26.80;38.30;;;;;;5070930;28;20211;-81
2023/01/18 06:37:27;;;;;;;6.37;3.40;;;26.70;38.10;;;;;;5069161;28;20196;-81
2023/01/18 06:39:54;;;;;;;7.27;3.50;;;26.80;38.10;;;;;;5068525;28;20751;-81
2023/01/18 06:42:21;;;;;;;3.80;2.53;;;26.80;38.00;;;;;;5069283;28;20238;-80
2023/01/18 06:44:48;;;;;;;7.30;3.53;;;26.80;38.10;;;;;;5063646;28;20231;-80
2023/01/18 06:47:18;;;;;;;6.67;3.63;;;26.80;38.00;;;;;;5063870;28;20287;-80
2023/01/18 06:49:45;;;;;;;10.97;4.57;;;26.80;38.10;;;;;;5067002;28;20208;-81
2023/01/18 06:52:12;;;;;;;5.53;3.10;;;26.80;38.00;;;;;;5052911;28;20649;-81
2023/01/18 06:54:41;;;;;;;9.23;4.37;;;26.80;38.10;;;;;;5067355;28;20223;-81
2023/01/18 06:57:08;;;;;;;6.97;3.40;;;26.80;38.00;;;;;;5069291;28;20204;-80
2023/01/18 06:59:35;;;;;;;6.57;3.40;;;26.80;38.00;;;;;;5068383;28;20283;-79
2023/01/18 07:02:03;;;;;;;9.73;4.40;;;26.80;38.00;;;;;;5063845;28;20290;-80
2023/01/18 07:04:31;;;;;;;6.00;3.40;;;26.80;38.00;;;;;;5068326;28;20231;-80
2023/01/18 07:06:58;;;;;;;7.33;3.87;;;26.80;38.00;;;;;;5069025;28;20253;-79
2023/01/18 07:09:26;;;;;;;13.87;5.83;;;26.80;38.00;;;;;;5065958;28;20199;-80
2023/01/18 07:11:54;;;;;;;15.90;6.33;;;26.80;37.90;;;;;;5064703;28;20342;-81
2023/01/18 07:14:21;;;;;;;8.43;3.73;;;26.80;38.00;;;;;;5065091;28;20200;-76
2023/01/18 07:16:48;;;;;;;10.37;4.90;;;26.80;38.00;;;;;;5066706;28;20199;-75
2023/01/18 07:19:15;;;;;;;9.03;4.47;;;26.80;38.00;;;;;;5065000;28;20207;-75
2023/01/18 07:21:42;;;;;;;5.20;3.13;;;26.80;38.00;;;;;;5061439;28;20204;-74
2023/01/18 07:24:09;;;;;;;10.17;4.60;;;26.80;37.90;;;;;;5067479;28;20200;-72
2023/01/18 07:26:36;;;;;;;7.67;3.47;;;26.80;37.90;;;;;;5069320;28;20196;-71
2023/01/18 07:29:04;;;;;;;7.53;3.33;;;26.80;38.10;;;;;;5068542;28;20294;-76
2023/01/18 07:31:31;;;;;;;9.57;4.53;;;26.80;37.90;;;;;;5067739;28;20459;-71
2023/01/18 07:33:59;;;;;;;7.87;3.90;;;26.70;37.60;;;;;;5067548;28;20308;-72
2023/01/18 07:36:26;;;;;;;7.73;3.87;;;26.70;38.00;;;;;;5069768;28;20214;-73
2023/01/18 07:38:53;;;;;;;12.03;5.20;;;26.70;38.10;;;;;;5067785;28;20298;-75
2023/01/18 07:41:21;;;;;;;6.63;3.43;;;26.80;38.00;;;;;;5067202;28;20292;-71
2023/01/18 07:43:49;;;;;;;6.07;3.53;;;26.80;38.00;;;;;;5068350;28;20556;-71
2023/01/18 07:46:19;;;;;;;8.47;4.00;;;26.70;38.00;;;;;;5067734;28;20206;-72
2023/01/18 07:48:47;;;;;;;6.80;3.33;;;26.70;37.70;;;;;;5068672;28;20289;-70
2023/01/18 07:51:15;;;;;;;6.57;3.37;;;26.70;37.70;;;;;;5066072;28;20254;-71
2023/01/18 07:53:42;;;;;;;7.93;4.25;;;26.70;37.90;;;;;;5061278;28;20446;-69
2023/01/18 07:56:12;;;;;;;8.83;3.87;;;26.60;37.40;;;;;;5068421;28;20717;-68
2023/01/18 07:58:39;;;;;;;8.97;4.47;;;26.60;37.70;;;;;;5064203;28;20210;-71
2023/01/18 08:01:08;;;;;;;7.87;4.07;;;26.60;37.90;;;;;;5066906;28;20200;-73
2023/01/18 08:03:36;;;;;;;4.70;3.20;;;26.60;37.80;;;;;;5068730;28;20847;-71
2023/01/18 08:06:05;;;;;;;5.90;3.30;;;26.60;37.70;;;;;;5068588;28;20286;-67
2023/01/18 08:08:32;;;;;;;7.60;3.57;;;26.60;37.60;;;;;;5067422;28;20203;-70
2023/01/18 08:11:01;;;;;;;6.40;3.47;;;26.70;37.70;;;;;;5066711;28;20223;-68
2023/01/18 08:13:28;;;;;;;5.50;3.27;;;26.70;37.70;;;;;;5062679;28;20219;-74
2023/01/18 08:15:58;;;;;;;5.70;3.47;;;26.70;37.80;;;;;;5067977;28;20547;-70
2023/01/18 08:18:25;;;;;;;5.77;3.47;;;26.70;37.70;;;;;;5066664;28;20226;-72
2023/01/18 08:20:53;;;;;;;6.27;3.50;;;26.70;37.70;;;;;;5067692;28;20214;-71
2023/01/18 08:23:20;;;;;;;8.17;3.77;;;26.70;37.70;;;;;;5067905;28;20201;-71
2023/01/18 08:25:47;;;;;;;7.67;3.80;;;26.70;37.70;;;;;;5068464;28;20326;-72
2023/01/18 08:28:15;;;;;;;7.00;3.73;;;26.70;37.70;;;;;;5067441;28;20286;-71
2023/01/18 08:30:45;;;;;;;6.93;3.43;;;26.70;37.70;;;;;;5067449;28;20214;-72
2023/01/18 08:33:12;;;;;;;6.00;3.47;;;26.70;37.70;;;;;;5068250;28;20573;-73
2023/01/18 08:35:42;;;;;;;8.70;3.30;;;26.70;37.70;;;;;;5067762;28;20219;-75
2023/01/18 08:38:11;;;;;;;9.27;4.20;;;26.70;37.60;;;;;;5067266;28;20207;-75
2023/01/18 08:40:38;;;;;;;5.90;3.37;;;26.70;37.60;;;;;;5066303;28;20980;-71
2023/01/18 08:43:06;;;;;;;11.23;5.13;;;26.70;37.50;;;;;;5067146;28;20271;-76
2023/01/18 08:45:34;;;;;;;5.50;2.90;;;26.70;37.60;;;;;;5069294;28;20666;-71
2023/01/18 08:48:03;;;;;;;5.70;3.30;;;26.70;37.60;;;;;;5072516;28;20210;-71
2023/01/18 08:50:32;;;;;;;6.00;3.33;;;26.70;37.40;;;;;;5072480;28;20253;-72
2023/01/18 08:52:59;;;;;;;8.13;4.10;;;26.70;37.50;;;;;;5071154;28;20199;-71
2023/01/18 08:55:28;;;;;;;8.77;4.10;;;26.70;38.20;;;;;;5071076;28;20203;-70
2023/01/18 08:57:56;;;;;;;5.87;3.53;;;26.70;37.50;;;;;;5072155;28;20655;-71
2023/01/18 09:00:23;;;;;;;5.50;3.13;;;26.70;37.50;;;;;;5071466;28;20286;-72
2023/01/18 09:02:51;;;;;;;6.77;3.57;;;26.70;37.60;;;;;;5072398;28;20198;-70
2023/01/18 09:05:18;;;;;;;4.97;3.03;;;26.70;37.60;;;;;;5071363;28;20207;-72
2023/01/18 09:07:46;;;;;;;6.17;3.33;;;26.70;37.50;;;;;;5066459;28;20563;-71
2023/01/18 09:10:13;;;;;;;4.33;2.77;;;26.70;37.50;;;;;;5068779;28;20984;-71
2023/01/18 09:12:42;;;;;;;6.40;3.27;;;26.70;37.60;;;;;;5065340;28;20233;-72
2023/01/18 09:15:09;;;;;;;4.90;3.10;;;26.70;37.50;;;;;;5064535;28;20210;-72
2023/01/18 09:17:36;;;;;;;9.63;4.60;;;26.70;37.70;;;;;;5067816;28;20562;-73
2023/01/18 09:20:06;;;;;;;5.93;3.37;;;26.70;37.70;;;;;;5069992;28;20315;-75
2023/01/18 09:22:33;;;;;;;7.47;3.63;;;26.70;37.70;;;;;;5069448;28;20294;-76
2023/01/18 09:25:00;;;;;;;6.07;3.27;;;26.70;37.80;;;;;;5070352;28;20231;-76
2023/01/18 09:27:27;;;;;;;7.60;3.80;;;26.70;37.70;;;;;;5068031;28;20199;-68
2023/01/18 09:29:55;;;;;;;6.90;3.20;;;26.70;37.70;;;;;;5069314;28;20199;-67
2023/01/18 09:32:24;;;;;;;6.37;3.47;;;26.70;37.60;;;;;;5066444;28;20223;-67
2023/01/18 09:34:51;;;;;;;10.70;4.70;;;26.70;37.60;;;;;;5068800;28;20314;-65
2023/01/18 09:37:18;;;;;;;5.83;3.30;;;26.70;37.50;;;;;;5068991;28;20731;-67
2023/01/18 09:39:46;;;;;;;6.53;3.37;;;26.70;37.50;;;;;;5070113;28;20204;-66
2023/01/18 09:42:19;;;;;;;6.77;3.50;;;26.70;37.70;;;;;;5070547;28;20199;-68
2023/01/18 09:44:50;;;;;;;9.23;4.37;;;26.70;37.70;;;;;;5067497;28;20191;-65
2023/01/18 09:47:23;;;;;;;9.17;4.37;;;26.70;37.70;;;;;;5068942;28;20225;-65
2023/01/18 09:49:55;;;;;;;6.13;3.63;;;26.70;37.50;;;;;;5064635;28;20541;-67
2023/01/18 09:52:30;;;;;;;7.50;3.90;;;26.70;37.60;;;;;;5063956;28;20617;-68
2023/01/18 09:55:08;;;;;;;7.53;3.70;;;26.70;37.60;;;;;;5070704;28;20209;-70
2023/01/18 09:57:46;;;;;;;7.13;3.80;;;26.70;37.70;;;;;;5066856;28;20282;-69
2023/01/18 10:00:19;;;;;;;6.00;3.47;;;26.70;37.70;;;;;;5070315;28;20225;-69
2023/01/18 10:02:50;;;;;;;9.97;4.83;;;26.70;37.70;;;;;;5065048;28;20203;-70
2023/01/18 10:05:21;;;;;;;6.33;3.57;;;26.70;37.80;;;;;;5065193;28;20187;-69
2023/01/18 10:08:01;;;;;;;6.77;3.60;;;26.70;37.70;;;;;;5070297;28;20203;-68
2023/01/18 10:10:32;;;;;;;6.47;3.87;;;26.70;38.30;;;;;;5067916;28;20207;-69
2023/01/18 10:13:18;;;;;;;6.27;3.73;;;26.70;38.10;;;;;;5068093;28;20725;-71
2023/01/18 10:15:45;;;;;;;6.10;3.40;;;26.80;38.20;;;;;;5060559;28;20199;-71
2023/01/18 10:18:16;;;;;;;7.57;4.03;;;26.90;38.30;;;;;;5069784;28;20196;-73
2023/01/18 10:20:48;;;;;;;12.70;5.37;;;26.90;38.40;;;;;;5063924;28;20672;-70
2023/01/18 10:23:23;;;;;;;6.53;3.30;;;27.00;38.10;;;;;;5069640;28;20291;-73
2023/01/18 10:25:54;;;;;;;6.47;3.63;;;27.10;38.10;;;;;;5067684;28;20281;-77
2023/01/18 10:28:33;;;;;;;8.70;4.10;;;27.30;38.10;;;;;;5067919;28;20195;-77
2023/01/18 10:31:16;;;;;;;6.70;3.37;;;27.40;38.00;;;;;;5064278;28;20231;-77
2023/01/18 10:33:53;;;;;;;5.60;3.33;;;27.50;37.80;;;;;;5068781;28;20789;-82
2023/01/18 10:36:29;;;;;;;10.43;4.80;;;27.60;37.80;;;;;;5067212;28;20234;-73
2023/01/18 10:38:56;;;;;;;10.07;4.43;;;27.70;37.90;;;;;;5066634;28;20234;-76
2023/01/18 10:41:28;;;;;;;5.57;3.53;;;27.80;38.00;;;;;;5069131;28;20232;-76
2023/01/18 10:43:55;;;;;;;5.93;3.60;;;27.90;37.60;;;;;;5063161;28;20196;-77
2023/01/18 10:46:22;;;;;;;7.23;3.77;;;28.00;37.60;;;;;;5070186;28;20203;-76
2023/01/18 10:48:51;;;;;;;5.53;3.13;;;28.00;37.50;;;;;;5070659;28;20191;-77
2023/01/18 10:51:29;;;;;;;7.20;3.37;;;28.10;37.40;;;;;;5050358;28;20234;-76
2023/01/18 10:53:56;;;;;;;7.23;3.70;;;28.20;37.20;;;;;;5065335;28;20194;-76
2023/01/18 10:56:26;;;;;;;5.23;3.10;;;28.30;37.40;;;;;;5070332;28;20363;-77
2023/01/18 10:58:57;;;;;;;9.70;4.83;;;28.30;37.30;;;;;;5065400;28;20213;-76
2023/01/18 11:01:27;;;;;;;11.83;5.40;;;28.40;37.20;;;;;;5060912;28;20728;-77
2023/01/18 11:03:58;;;;;;;9.60;4.70;;;28.50;37.20;;;;;;5061005;28;20527;-77
2023/01/18 11:06:25;;;;;;;8.57;4.07;;;28.60;37.10;;;;;;5061785;28;20285;-80
2023/01/18 11:08:53;;;;;;;11.43;5.30;;;28.70;37.10;;;;;;5063829;28;20203;-77
2023/01/18 11:12:32;;;;;;;10.20;4.83;;;28.70;36.90;;;;;;5058252;28;20203;-77
2023/01/18 11:14:25;;;;;;;7.90;4.03;;;28.80;36.90;;;;;;5061595;28;20196;-75
2023/01/18 11:16:59;;;;;;;8.37;3.93;;;28.90;36.60;;;;;;5066999;28;20879;-73
2023/01/18 11:19:28;;;;;;;7.30;3.60;;;29.00;36.80;;;;;;5065242;28;20371;-73
2023/01/18 11:21:56;;;;;;;5.60;3.20;;;29.10;36.90;;;;;;5067596;28;20207;-74
2023/01/18 11:24:26;;;;;;;6.13;3.38;;;29.10;36.90;;;;;;5069153;28;20207;-75
2023/01/18 11:26:57;;;;;;;7.50;4.07;;;29.20;36.80;;;;;;5068807;28;20676;-74
2023/01/18 11:29:28;;;;;;;7.82;4.07;;;29.20;36.80;;;;;;5067986;28;20329;-76
2023/01/18 11:32:00;;;;;;;6.97;3.50;;;29.30;36.70;;;;;;5067715;28;20227;-74
2023/01/18 11:34:30;;;;;;;4.37;2.77;;;29.30;36.80;;;;;;5068384;28;20220;-74
2023/01/18 11:36:59;;;;;;;13.07;5.77;;;29.30;36.60;;;;;;5067791;28;20575;-76
2023/01/18 11:39:29;;;;;;;5.63;3.10;;;29.30;36.80;;;;;;5068128;28;20207;-74
2023/01/18 11:42:22;;;;;;;4.33;2.60;;;29.40;36.70;;;;;;5067631;28;20213;-73
2023/01/18 11:45:12;;;;;;;11.10;5.22;;;29.40;36.50;;;;;;5066068;28;20459;-76
2023/01/18 11:47:54;;;;;;;6.30;3.13;;;29.40;36.00;;;;;;5058750;28;20269;-72
2023/01/18 11:50:33;;;;;;;7.10;3.10;;;29.40;36.10;;;;;;5064370;28;20218;-70
2023/01/18 11:53:09;;;;;;;4.20;2.63;;;29.40;36.10;;;;;;5067116;28;20221;-70
2023/01/18 11:55:42;;;;;;;8.33;4.20;;;29.40;36.10;;;;;;5067648;28;20195;-71
2023/01/18 11:58:16;;;;;;;6.53;3.70;;;29.40;36.20;;;;;;5067760;28;20231;-69
2023/01/18 12:00:52;;;;;;;6.10;3.27;;;29.40;36.20;;;;;;5066841;28;20198;-71
2023/01/18 12:03:45;;;;;;;9.20;4.60;;;29.30;36.10;;;;;;5065358;28;20570;-76
2023/01/18 12:06:22;;;;;;;13.33;5.10;;;29.30;35.80;;;;;;5068052;28;20203;-76
2023/01/18 12:09:03;;;;;;;5.60;2.97;;;29.30;36.10;;;;;;5067480;28;20203;-74
2023/01/18 12:11:56;;;;;;;7.63;3.70;;;29.20;35.90;;;;;;5053145;28;20202;-71
2023/01/18 12:14:42;;;;;;;6.93;3.53;;;29.20;35.20;;;;;;5064865;28;20208;-72
2023/01/18 12:17:35;;;;;;;6.57;3.30;;;29.20;35.90;;;;;;5068755;28;20274;-73
2023/01/18 12:20:22;;;;;;;7.73;3.50;;;29.10;35.90;;;;;;5062141;28;20239;-71
2023/01/18 12:23:21;;;;;;;5.17;2.93;;;29.00;36.00;;;;;;5068490;28;20206;-71
2023/01/18 12:26:03;;;;;;;6.10;2.83;;;29.00;36.00;;;;;;5067826;28;20210;-72
2023/01/18 12:28:40;;;;;;;6.20;3.33;;;29.00;36.00;;;;;;5067870;28;20337;-73
2023/01/18 12:31:18;;;;;;;4.57;2.47;;;29.00;36.30;;;;;;5067203;28;20191;-73
2023/01/18 12:33:53;;;;;;;3.73;2.27;;;29.00;36.30;;;;;;5068425;28;20241;-72
2023/01/18 12:36:51;;;;;;;5.90;3.27;;;28.90;36.20;;;;;;5068129;28;20202;-72
2023/01/18 12:39:32;;;;;;;4.87;2.80;;;28.90;36.10;;;;;;5068520;28;20280;-73
2023/01/18 12:42:04;;;;;;;4.23;2.50;;;28.90;36.40;;;;;;5068521;28;20205;-73
2023/01/18 12:44:47;;;;;;;7.13;3.50;;;28.80;36.40;;;;;;5067419;28;20206;-72
2023/01/18 12:47:33;;;;;;;5.50;2.80;;;28.80;36.30;;;;;;5048698;28;20196;-76
2023/01/18 12:50:07;;;;;;;5.10;2.90;;;28.80;36.60;;;;;;5054175;28;20199;-73
2023/01/18 12:52:44;;;;;;;5.20;2.70;;;28.80;36.60;;;;;;5068632;28;20211;-76
2023/01/18 12:55:20;;;;;;;6.13;3.13;;;28.80;36.50;;;;;;5067692;28;20195;-72
2023/01/18 12:57:49;;;;;;;7.77;3.63;;;28.80;36.40;;;;;;5068141;28;20965;-71
2023/01/18 13:00:19;;;;;;;5.87;3.10;;;28.80;36.60;;;;;;5068442;28;20423;-71
2023/01/18 13:02:50;;;;;;;5.30;3.03;;;28.80;36.60;;;;;;5067037;28;20225;-72
2023/01/18 13:05:21;;;;;;;4.20;2.43;;;28.80;36.60;;;;;;5067500;28;20200;-72
2023/01/18 13:07:54;;;;;;;4.53;2.60;;;28.80;36.40;;;;;;5068446;28;20197;-71
2023/01/18 13:10:25;;;;;;;5.73;2.90;;;28.80;36.60;;;;;;5068281;28;20203;-72
2023/01/18 13:12:53;;;;;;;4.03;2.20;;;28.80;36.60;;;;;;5068193;28;20314;-71
2023/01/18 13:15:30;;;;;;;6.67;3.23;;;28.80;36.60;;;;;;5061764;28;20232;-72
2023/01/18 13:18:05;;;;;;;5.80;3.10;;;28.80;36.60;;;;;;5068222;28;20195;-73
2023/01/18 13:20:44;;;;;;;5.97;3.00;;;28.80;36.60;;;;;;5068229;28;20252;-71
2023/01/18 13:23:25;;;;;;;5.87;2.87;;;28.80;36.60;;;;;;5065700;28;20280;-75
2023/01/18 13:26:00;;;;;;;5.50;3.00;;;28.80;36.60;;;;;;5068037;28;20199;-73
2023/01/18 13:28:27;;;;;;;4.50;2.67;;;28.80;36.60;;;;;;5068077;28;20213;-72
2023/01/18 13:30:59;;;;;;;4.43;2.53;;;28.80;36.60;;;;;;5068291;28;20656;-73
2023/01/18 13:33:27;;;;;;;5.23;2.83;;;28.80;36.60;;;;;;5071687;28;20261;-72
2023/01/18 13:35:57;;;;;;;4.70;2.77;;;28.80;36.70;;;;;;5070998;28;21150;-72